createdAt,value
2023-01-20T00:04:50.870Z,99314.50
2023-01-20T00:09:53.828Z,99314.38
2023-01-20T00:14:56.806Z,99324.81
2023-01-20T00:19:59.664Z,99317.72
2023-01-20T00:25:03.045Z,99321.25
2023-01-20T00:30:06.971Z,99319.84
2023-01-20T00:35:11.133Z,99304.41
2023-01-20T00:40:14.604Z,99301.31
2023-01-20T00:45:17.570Z,99321.84
2023-01-20T00:50:20.482Z,99336.81
2023-01-20T00:55:23.414Z,99361.13
2023-01-20T01:00:26.378Z,99359.13
2023-01-20T01:05:29.302Z,99345.00
2023-01-20T01:10:32.907Z,99338.69
2023-01-20T01:15:36.447Z,99330.50
2023-01-20T01:20:39.755Z,99316.28
2023-01-20T01:25:42.604Z,99300.34
2023-01-20T01:30:45.661Z,99299.31
2023-01-20T01:36:01.339Z,99292.03
2023-01-20T01:41:05.339Z,99275.53
2023-01-20T01:46:08.297Z,99267.28
2023-01-20T01:51:19.417Z,99281.25
2023-01-20T01:56:24.008Z,99271.06
2023-01-20T02:01:29.217Z,99271.75
2023-01-20T02:06:35.633Z,99274.97
2023-01-20T02:11:48.532Z,99265.22
2023-01-20T02:17:14.766Z,99264.03
2023-01-20T02:22:46.236Z,99258.56
2023-01-20T02:28:13.242Z,99254.88
2023-01-20T02:33:50.400Z,99263.28
2023-01-20T02:39:04.466Z,99268.03
2023-01-20T02:44:53.516Z,99264.91
2023-01-20T02:50:22.860Z,99264.41
2023-01-20T02:55:39.071Z,99270.22
2023-01-20T03:00:50.859Z,99280.41
2023-01-20T03:05:59.153Z,99285.41
2023-01-20T03:11:09.170Z,99276.63
2023-01-20T03:16:20.458Z,99275.41
2023-01-20T03:21:24.025Z,99282.91
2023-01-20T03:26:27.498Z,99295.69
2023-01-20T03:31:35.785Z,99297.13
2023-01-20T03:36:41.288Z,99308.25
2023-01-20T03:41:51.650Z,99311.56
2023-01-20T03:47:15.147Z,99309.56
2023-01-20T03:52:47.224Z,99305.97
2023-01-20T03:58:05.405Z,99305.84
2023-01-20T04:03:16.299Z,99303.22
2023-01-20T04:08:24.861Z,99294.69
2023-01-20T04:13:27.715Z,99291.53
2023-01-20T04:18:30.748Z,99291.53
2023-01-20T04:23:40.377Z,99291.38
2023-01-20T04:28:43.294Z,99286.16
2023-01-20T04:33:46.252Z,99291.13
2023-01-20T04:38:52.335Z,99299.91
2023-01-20T04:43:55.233Z,99298.97
2023-01-20T04:48:58.291Z,99304.91
2023-01-20T04:54:01.252Z,99305.59
2023-01-20T04:59:05.198Z,99304.41
2023-01-20T05:04:08.325Z,99283.50
2023-01-20T05:09:16.029Z,99277.16
2023-01-20T05:14:18.903Z,99257.34
2023-01-20T05:19:21.792Z,99254.84
2023-01-20T05:24:25.027Z,99240.00
2023-01-20T05:29:29.146Z,99237.28
2023-01-20T05:34:31.981Z,99247.44
2023-01-20T05:39:34.928Z,99255.19
2023-01-20T05:44:38.458Z,99241.16
2023-01-20T05:49:41.447Z,99247.06
2023-01-20T05:54:44.718Z,99264.28
2023-01-20T05:59:48.474Z,99251.78
2023-01-20T06:04:51.405Z,99253.06
2023-01-20T06:09:54.281Z,99263.00
2023-01-20T06:14:57.287Z,99265.94
2023-01-20T06:20:00.454Z,99265.56
2023-01-20T06:25:04.539Z,99250.31
2023-01-20T06:30:08.934Z,99253.47
2023-01-20T06:35:29.522Z,99252.97
2023-01-20T06:40:32.778Z,99258.09
2023-01-20T06:45:35.666Z,99270.88
2023-01-20T06:50:38.564Z,99273.13
2023-01-20T06:55:41.415Z,99275.34
2023-01-20T07:00:44.308Z,99283.75
2023-01-20T07:06:00.007Z,99286.94
2023-01-20T07:11:02.904Z,99287.50
2023-01-20T07:16:06.998Z,99296.75
2023-01-20T07:21:12.400Z,99293.91
2023-01-20T07:26:21.954Z,99302.44
2023-01-20T07:31:27.364Z,99319.41
2023-01-20T07:36:30.342Z,99316.66
2023-01-20T07:41:33.574Z,99310.34
2023-01-20T07:46:37.000Z,99310.75
2023-01-20T07:51:40.053Z,99307.06
2023-01-20T07:56:43.109Z,99313.69
2023-01-20T08:01:46.205Z,99320.44
2023-01-20T08:06:49.133Z,99318.50
2023-01-20T08:11:52.020Z,99339.22
2023-01-20T08:16:55.112Z,99343.09
2023-01-20T08:21:58.245Z,99339.50
2023-01-20T08:27:01.224Z,99328.66
2023-01-20T08:32:04.164Z,99335.38
2023-01-20T08:37:07.770Z,99333.47
2023-01-20T08:42:10.710Z,99346.31
2023-01-20T08:47:13.607Z,99343.41
2023-01-20T08:52:16.376Z,99329.47
2023-01-20T08:57:19.494Z,99340.66
2023-01-20T09:02:24.613Z,99338.59
2023-01-20T09:07:27.916Z,99341.09
2023-01-20T09:12:30.894Z,99346.19
2023-01-20T09:17:36.180Z,99348.97
2023-01-20T09:22:40.467Z,99346.44
2023-01-20T09:27:43.457Z,99349.06
2023-01-20T09:32:46.422Z,99328.25
2023-01-20T09:38:07.472Z,99314.03
2023-01-20T09:43:54.475Z,99301.81
2023-01-20T09:49:55.079Z,99296.13
2023-01-20T09:55:46.566Z,99285.25
2023-01-20T10:01:35.297Z,99284.84
2023-01-20T10:07:12.570Z,99272.41
2023-01-20T10:12:37.980Z,99250.22
2023-01-20T10:17:55.430Z,99217.53
2023-01-20T10:23:29.572Z,99204.81
2023-01-20T10:28:43.414Z,99199.31
2023-01-20T10:33:46.367Z,99202.19
2023-01-20T10:39:13.306Z,99206.75
2023-01-20T10:44:16.637Z,99201.63
2023-01-20T10:49:56.614Z,99206.72
2023-01-20T10:55:19.212Z,99220.63
2023-01-20T11:00:33.226Z,99219.78
2023-01-20T11:05:38.276Z,99232.03
2023-01-20T11:10:41.872Z,99237.41
2023-01-20T11:15:49.750Z,99236.44
2023-01-20T11:20:57.187Z,99241.69
2023-01-20T11:26:18.534Z,99231.91
2023-01-20T11:31:40.847Z,99222.53
2023-01-20T11:36:46.142Z,99207.94
2023-01-20T11:41:49.309Z,99195.81
2023-01-20T11:46:52.226Z,99189.63
2023-01-20T11:51:57.547Z,99180.81
2023-01-20T11:57:05.289Z,99190.59
2023-01-20T12:02:08.441Z,99190.06
2023-01-20T12:07:41.481Z,99178.75
2023-01-20T12:13:12.197Z,99180.00
2023-01-20T12:18:36.414Z,99175.72
2023-01-20T12:23:55.283Z,99183.84
2023-01-20T12:29:10.313Z,99200.13
2023-01-20T12:34:17.504Z,99194.75
2023-01-20T12:40:05.088Z,99190.91
2023-01-20T12:45:41.519Z,99183.44
2023-01-20T12:51:25.494Z,99198.75
2023-01-20T12:56:59.905Z,99184.28
2023-01-20T13:02:21.587Z,99195.84
2023-01-20T13:07:46.844Z,99192.69
2023-01-20T13:13:56.875Z,99212.69
2023-01-20T13:19:19.454Z,99210.31
2023-01-20T13:24:29.758Z,99208.00
2023-01-20T13:30:07.165Z,99213.38
2023-01-20T13:35:25.186Z,99218.59
2023-01-20T13:40:37.508Z,99218.00
2023-01-20T13:45:40.697Z,99217.25
2023-01-20T13:50:46.708Z,99219.75
2023-01-20T13:55:56.587Z,99216.31
2023-01-20T14:01:04.991Z,99220.25
2023-01-20T14:06:13.869Z,99219.34
2023-01-20T14:11:23.387Z,99215.72
2023-01-20T14:16:36.818Z,99228.19
2023-01-20T14:21:41.889Z,99221.56
2023-01-20T14:26:44.830Z,99234.75
2023-01-20T14:31:48.193Z,99229.66
2023-01-20T14:36:52.906Z,99237.50
2023-01-20T14:42:01.718Z,99235.44
2023-01-20T14:47:04.701Z,99233.81
2023-01-20T14:52:21.960Z,99240.69
2023-01-20T14:57:26.581Z,99244.13
2023-01-20T15:02:36.141Z,99240.13
2023-01-20T15:07:39.125Z,99251.28
2023-01-20T15:12:48.345Z,99245.22
2023-01-20T15:18:28.053Z,99258.66
2023-01-20T15:23:43.550Z,99253.78
2023-01-20T15:28:46.278Z,99263.56
2023-01-20T15:33:50.584Z,99271.53
2023-01-20T15:38:53.764Z,99270.09
2023-01-20T15:43:56.714Z,99265.97
2023-01-20T15:48:59.620Z,99266.19
2023-01-20T15:54:02.831Z,99277.03
2023-01-20T15:59:18.488Z,99273.16
2023-01-20T16:04:21.855Z,99265.66
2023-01-20T16:09:30.548Z,99272.22
2023-01-20T16:14:33.289Z,99271.63
2023-01-20T16:19:36.346Z,99293.72
2023-01-20T16:24:39.759Z,99284.34
2023-01-20T16:29:43.434Z,99288.25
2023-01-20T16:34:46.995Z,99273.34
2023-01-20T16:39:49.899Z,99283.44
2023-01-20T16:44:53.102Z,99287.22
2023-01-20T16:49:56.094Z,99276.31
2023-01-20T16:54:59.326Z,99280.69
2023-01-20T17:00:07.505Z,99299.19
2023-01-20T17:05:10.547Z,99293.28
2023-01-20T17:10:13.310Z,99309.06
2023-01-20T17:15:16.308Z,99298.50
2023-01-20T17:20:19.524Z,99283.78
2023-01-20T17:25:22.982Z,99295.31
2023-01-20T17:30:26.698Z,99299.81
2023-01-20T17:35:29.754Z,99298.84
2023-01-20T17:40:32.760Z,99289.97
2023-01-20T17:45:35.575Z,99289.22
2023-01-20T17:50:39.121Z,99295.31
2023-01-20T17:55:42.084Z,99297.06
2023-01-20T18:00:46.723Z,99289.22
2023-01-20T18:05:53.645Z,99283.19
2023-01-20T18:11:02.166Z,99291.00
2023-01-20T18:16:11.900Z,99295.06
2023-01-20T18:21:15.956Z,99298.28
2023-01-20T18:26:22.543Z,99292.94
2023-01-20T18:31:27.177Z,99279.53
2023-01-20T18:36:34.415Z,99254.94
2023-01-20T18:41:37.923Z,99250.06
2023-01-20T18:46:41.712Z,99247.94
2023-01-20T18:51:45.279Z,99252.78
2023-01-20T18:56:48.768Z,99255.03
2023-01-20T19:01:51.694Z,99264.19
2023-01-20T19:06:55.170Z,99261.16
2023-01-20T19:11:58.317Z,99254.56
2023-01-20T19:17:01.226Z,99248.50
2023-01-20T19:22:04.256Z,99264.19
2023-01-20T19:27:08.153Z,99272.09
2023-01-20T19:32:11.269Z,99291.22
2023-01-20T19:37:14.623Z,99296.34
2023-01-20T19:42:17.653Z,99310.09
2023-01-20T19:47:20.591Z,99311.03
2023-01-20T19:52:23.495Z,99296.06
2023-01-20T19:57:27.348Z,99309.34
2023-01-20T20:02:31.229Z,99306.84
2023-01-20T20:07:38.259Z,99298.31
2023-01-20T20:12:41.111Z,99303.69
2023-01-20T20:17:44.033Z,99310.91
2023-01-20T20:22:46.711Z,99317.66
2023-01-20T20:27:51.032Z,99315.31
2023-01-20T20:32:53.916Z,99311.19
2023-01-20T20:37:57.046Z,99330.16
2023-01-20T20:43:00.002Z,99328.59
2023-01-20T20:48:02.847Z,99326.94
2023-01-20T20:53:05.798Z,99344.88
2023-01-20T20:58:13.065Z,99351.03
2023-01-20T21:03:16.016Z,99354.47
2023-01-20T21:08:19.450Z,99357.22
2023-01-20T21:13:22.443Z,99363.50
2023-01-20T21:18:26.003Z,99356.88
2023-01-20T21:23:30.277Z,99367.06
2023-01-20T21:28:35.687Z,99373.13
2023-01-20T21:33:40.799Z,99370.63
2023-01-20T21:38:45.529Z,99373.25
2023-01-20T21:44:07.257Z,99380.25
2023-01-20T21:49:29.055Z,99394.13
2023-01-20T21:54:34.287Z,99384.63
2023-01-20T21:59:37.472Z,99393.31
2023-01-20T22:04:42.004Z,99394.13
2023-01-20T22:09:44.869Z,99402.66
2023-01-20T22:14:48.630Z,99402.66
2023-01-20T22:19:51.699Z,99413.38
2023-01-20T22:24:54.706Z,99402.78
2023-01-20T22:29:58.638Z,99403.88
2023-01-20T22:35:01.674Z,99413.59
2023-01-20T22:40:06.214Z,99422.63
2023-01-20T22:45:10.410Z,99425.56
2023-01-20T22:50:13.460Z,99428.53
2023-01-20T22:55:16.533Z,99435.75
2023-01-20T23:00:19.903Z,99422.94
2023-01-20T23:05:23.247Z,99422.81
2023-01-20T23:10:44.920Z,99420.47
2023-01-20T23:15:47.949Z,99427.91
2023-01-20T23:20:54.673Z,99424.47
2023-01-20T23:26:16.868Z,99421.66
2023-01-20T23:31:20.764Z,99434.38
2023-01-20T23:36:25.949Z,99429.22
2023-01-20T23:41:28.866Z,99448.25
2023-01-20T23:46:32.037Z,99452.38
2023-01-20T23:51:35.627Z,99445.50
2023-01-20T23:56:38.809Z,99450.59
